EHGR METAR and TAF | Updated Today

EHGR METAR

Gilze Rijen Air Base

Observation time: 21 min. ago

EHGR 292003Z AUTO 00000KT 9999 NCD 07/06 Q1006 BLU TEMPO 4500 MIFG

Need help? Read our tutorial on how to read METARs or read the parsed version below.

Gilze Rijen Air Base (EHGR) METAR

  • Weather conditions on Thu, 29 Sep 2022 20:03:00 +0000 (21 min. ago):
  • Present conditions: Dry
  • Clouds: Nil cloud detected
  • Visibility: Greater than 10 km
  • Wind: Calm
  • Temperature: 7 celsius
  • Dew point: 6 celsius
  • Pressure: 1006 millibars
  • Remarks: None


Useful to know...

EHGR TAF

Gilze Rijen Air Base

TAF EHGR 291626Z 2917/3005 36003KT CAVOK BECMG 2919/2922 VRB02KT 4500 BR MIFG PROB40 2922/3005 0400 FG VV001
Observation time: 3:58 hr. ago
Need help? Read our tutorial on how to read TAFs or read the parsed version below.

Parsed version of TAF for Gilze Rijen Air Base (EHGR)

  • From 29 September at 17:00 UTC, to day 30 of the month at 05:00 UTC
  • Visibility: Greater than 10 km
  • Wind: 360 degrees at 3
  • Expected to arise soon, from 29 September at 19:00 UTC, to day 29 of the month at 22:00 UTC
  • Visibility: 4500 meters
  • Wind: Variable at 2
  • Other: Mist; shallow fog
  • From 29 September at 22:00 UTC, to day 30 of the month at 05:00 UTC
    Probability of 40%
  • Clouds: Vertical visibility at 30 meters
  • Visibility: 400 meters
  • Other: Fog